Time;durP1;ratioP1;P1;durP2;ratioP2;P2;SDS_P1;SDS_P2;PMS_P1;PMS_P2;Temp;Humidity;BMP_temperature;BMP_pressure;BME280_temperature;BME280_humidity;BME280_pressure;Samples;Min_cycle;Max_cycle;Signal;HPM_P1;HPM_P2
2023/10/18 00:00:34;;;;;;;7.63;4.03;;;15.00;99.90;;;;;;4990294;28;20771;-70
2023/10/18 00:03:03;;;;;;;12.60;6.40;;;15.10;99.90;;;;;;4991269;28;20022;-69
2023/10/18 00:05:29;;;;;;;7.28;4.57;;;15.10;99.90;;;;;;4985840;28;20425;-70
2023/10/18 00:07:59;;;;;;;7.67;4.60;;;15.10;99.90;;;;;;4988874;28;20022;-70
2023/10/18 00:10:27;;;;;;;9.45;4.97;;;15.10;99.90;;;;;;4988626;28;20475;-70
2023/10/18 00:12:53;;;;;;;7.68;4.65;;;15.00;99.90;;;;;;4988353;28;20147;-70
2023/10/18 00:15:20;;;;;;;8.20;4.95;;;15.00;99.90;;;;;;4989240;28;20038;-69
2023/10/18 00:17:45;;;;;;;10.68;4.55;;;14.90;99.90;;;;;;4988680;28;20290;-70
2023/10/18 00:20:15;;;;;;;7.10;5.37;;;14.90;99.90;;;;;;4989716;28;20057;-70
2023/10/18 00:22:42;;;;;;;7.65;5.15;;;15.00;99.90;;;;;;4989886;28;20033;-70
2023/10/18 00:25:10;;;;;;;10.10;4.63;;;15.00;99.90;;;;;;4989840;28;21043;-70
2023/10/18 00:27:37;;;;;;;9.30;4.88;;;15.10;99.90;;;;;;4981005;28;20038;-70
2023/10/18 00:30:07;;;;;;;5.85;4.35;;;15.10;99.90;;;;;;4988791;28;20034;-70
2023/10/18 00:32:34;;;;;;;9.65;4.30;;;15.00;99.90;;;;;;4988281;28;20101;-70
2023/10/18 00:34:59;;;;;;;9.85;5.05;;;15.00;99.90;;;;;;4988931;28;20152;-70
2023/10/18 00:37:25;;;;;;;16.00;4.50;;;14.90;99.90;;;;;;4986703;28;20113;-69
2023/10/18 00:39:52;;;;;;;7.13;4.07;;;14.90;99.90;;;;;;5020075;28;20536;-69
2023/10/18 00:42:27;;;;;;;16.48;4.20;;;14.80;99.90;;;;;;4989165;28;20153;-69
2023/10/18 00:45:08;;;;;;;5.82;4.32;;;14.70;99.90;;;;;;4988658;28;20018;-69
2023/10/18 00:47:35;;;;;;;8.00;4.80;;;14.70;99.90;;;;;;4988729;28;20570;-70
2023/10/18 00:50:02;;;;;;;9.85;4.47;;;14.50;99.90;;;;;;4988265;28;20018;-70
2023/10/18 00:52:30;;;;;;;10.15;4.72;;;14.50;99.90;;;;;;4988695;28;20443;-70
2023/10/18 00:54:55;;;;;;;7.35;4.57;;;14.50;99.90;;;;;;4987036;28;20030;-70
2023/10/18 00:57:25;;;;;;;9.63;4.47;;;14.40;99.90;;;;;;4987899;28;20081;-70
2023/10/18 00:59:52;;;;;;;9.35;4.40;;;14.40;99.90;;;;;;4987843;28;20042;-70
2023/10/18 01:02:28;;;;;;;9.38;4.45;;;14.40;99.90;;;;;;4986732;28;20042;-70
2023/10/18 01:04:54;;;;;;;7.80;4.57;;;14.40;99.90;;;;;;4986720;28;20038;-70
2023/10/18 01:07:20;;;;;;;9.13;4.15;;;14.40;99.90;;;;;;4986642;28;20034;-69
2023/10/18 01:09:53;;;;;;;11.18;5.13;;;14.50;99.90;;;;;;4987829;28;20454;-70
2023/10/18 01:12:20;;;;;;;6.45;4.25;;;14.50;99.90;;;;;;4987894;28;20027;-70
2023/10/18 01:14:46;;;;;;;5.78;3.72;;;14.60;99.90;;;;;;4987750;28;20816;-70
2023/10/18 01:17:11;;;;;;;11.52;4.90;;;14.60;99.90;;;;;;4987977;28;20039;-70
2023/10/18 01:19:41;;;;;;;7.27;4.43;;;14.70;99.90;;;;;;4987416;28;20066;-70
2023/10/18 01:22:07;;;;;;;14.35;4.05;;;14.80;99.90;;;;;;4988223;28;20401;-70
2023/10/18 01:24:38;;;;;;;10.80;4.65;;;14.80;99.90;;;;;;4987942;28;20037;-70
2023/10/18 01:27:04;;;;;;;7.70;4.18;;;14.90;99.90;;;;;;4988115;28;20049;-70
2023/10/18 01:29:30;;;;;;;7.10;4.05;;;14.90;99.90;;;;;;4988421;28;20114;-70
2023/10/18 01:31:56;;;;;;;6.00;4.47;;;14.90;99.90;;;;;;4988879;28;20425;-70
2023/10/18 01:34:22;;;;;;;9.85;4.78;;;14.90;99.90;;;;;;4987877;28;20042;-70
2023/10/18 01:36:52;;;;;;;8.10;4.90;;;15.00;99.90;;;;;;4987940;28;20548;-70
2023/10/18 01:39:18;;;;;;;6.00;4.05;;;15.00;99.90;;;;;;4987209;28;20289;-70
2023/10/18 01:41:54;;;;;;;8.50;4.60;;;15.00;99.90;;;;;;4987379;28;20081;-70
2023/10/18 01:44:30;;;;;;;8.77;4.65;;;15.00;99.90;;;;;;4986394;28;20045;-70
2023/10/18 01:47:06;;;;;;;19.00;5.38;;;15.00;99.90;;;;;;4985182;28;20034;-69
2023/10/18 01:49:34;;;;;;;5.68;3.75;;;15.10;99.90;;;;;;4983035;28;20038;-69
2023/10/18 01:51:59;;;;;;;10.35;5.07;;;15.00;99.90;;;;;;4986429;28;20034;-69
2023/10/18 01:54:25;;;;;;;5.90;3.57;;;15.10;99.90;;;;;;4986474;28;20030;-70
2023/10/18 01:57:03;;;;;;;6.33;4.17;;;15.10;99.90;;;;;;4987288;28;20037;-70
2023/10/18 01:59:29;;;;;;;6.85;3.67;;;15.10;99.90;;;;;;4981700;28;20046;-70
2023/10/18 02:01:58;;;;;;;10.33;3.90;;;15.10;99.90;;;;;;4988546;28;20030;-70
2023/10/18 02:04:30;;;;;;;6.47;3.72;;;15.10;99.90;;;;;;4987302;28;20105;-70
2023/10/18 02:06:59;;;;;;;4.68;3.10;;;15.20;99.90;;;;;;4988484;28;20041;-70
2023/10/18 02:09:47;;;;;;;8.45;4.03;;;15.20;99.90;;;;;;4986831;28;20038;-70
2023/10/18 02:12:13;;;;;;;10.27;4.78;;;15.20;99.90;;;;;;4985568;28;20550;-70
2023/10/18 02:14:38;;;;;;;8.57;3.40;;;15.20;99.90;;;;;;4986592;28;20557;-70
2023/10/18 02:17:06;;;;;;;5.50;3.50;;;15.20;99.90;;;;;;4987263;28;20658;-70
2023/10/18 02:19:32;;;;;;;11.02;3.90;;;15.30;99.90;;;;;;4987033;28;20034;-70
2023/10/18 02:22:01;;;;;;;8.18;3.42;;;15.20;99.90;;;;;;4987388;28;20034;-70
2023/10/18 02:24:27;;;;;;;7.75;3.10;;;15.20;99.90;;;;;;4985442;28;20045;-70
2023/10/18 02:26:55;;;;;;;8.10;3.80;;;15.20;99.90;;;;;;4986799;28;20041;-70
2023/10/18 02:29:22;;;;;;;11.23;3.53;;;15.20;99.90;;;;;;4986160;28;20293;-71
2023/10/18 02:31:49;;;;;;;7.53;3.47;;;15.10;99.90;;;;;;4985680;28;20109;-70
2023/10/18 02:34:15;;;;;;;10.35;4.05;;;15.00;99.90;;;;;;4986641;28;20482;-69
2023/10/18 02:36:47;;;;;;;6.13;3.90;;;15.10;99.90;;;;;;4987171;28;20088;-70
2023/10/18 02:39:22;;;;;;;8.63;3.65;;;15.10;99.90;;;;;;4986943;28;20034;-70
2023/10/18 02:41:48;;;;;;;5.45;3.28;;;15.10;99.90;;;;;;4987055;28;20238;-70
2023/10/18 02:44:21;;;;;;;7.93;4.18;;;15.20;99.90;;;;;;4986162;28;20133;-70
2023/10/18 02:46:51;;;;;;;9.73;4.15;;;15.10;99.90;;;;;;4986328;28;20031;-70
2023/10/18 02:49:17;;;;;;;11.85;4.60;;;15.10;99.90;;;;;;4986060;28;20076;-70
2023/10/18 02:51:44;;;;;;;8.68;4.15;;;15.10;99.90;;;;;;4986382;28;20027;-69
2023/10/18 02:56:43;;;;;;;10.70;4.55;;;15.00;99.90;;;;;;4989435;28;20062;-70
2023/10/18 02:59:10;;;;;;;6.55;4.22;;;15.00;99.90;;;;;;4989996;28;20034;-70
2023/10/18 03:01:40;;;;;;;7.88;4.40;;;15.00;99.90;;;;;;4990278;28;20034;-70
2023/10/18 03:04:16;;;;;;;9.38;4.05;;;15.00;99.90;;;;;;4986757;28;20077;-70
2023/10/18 03:06:45;;;;;;;12.38;4.63;;;15.00;99.90;;;;;;4988053;28;20081;-70
2023/10/18 03:09:27;;;;;;;12.73;4.35;;;15.00;99.90;;;;;;4987463;28;20398;-70
2023/10/18 03:11:55;;;;;;;8.32;4.40;;;15.00;99.90;;;;;;4986971;28;20034;-70
2023/10/18 03:14:23;;;;;;;8.70;4.50;;;15.00;99.90;;;;;;4989512;28;20521;-69
2023/10/18 03:16:49;;;;;;;7.88;4.20;;;14.90;99.90;;;;;;4966299;28;20502;-70
2023/10/18 03:19:18;;;;;;;6.30;4.45;;;14.90;99.90;;;;;;4988149;28;20457;-69
2023/10/18 03:21:50;;;;;;;11.95;4.20;;;14.90;99.90;;;;;;4987291;28;20041;-70
2023/10/18 03:24:19;;;;;;;9.00;4.25;;;14.80;99.90;;;;;;4987305;28;20030;-70
2023/10/18 03:26:45;;;;;;;8.65;4.38;;;14.70;99.90;;;;;;4988506;28;20038;-69
2023/10/18 03:29:11;;;;;;;8.32;4.35;;;14.70;99.90;;;;;;4988144;28;20037;-70
2023/10/18 03:31:41;;;;;;;9.13;3.85;;;14.70;99.90;;;;;;4987653;28;20410;-70
2023/10/18 03:34:18;;;;;;;10.52;3.95;;;14.70;99.90;;;;;;4988536;28;20079;-69
2023/10/18 03:36:51;;;;;;;7.30;4.18;;;14.70;99.90;;;;;;4987960;28;20026;-69
2023/10/18 03:39:19;;;;;;;7.65;4.13;;;14.70;99.90;;;;;;4990410;28;20069;-70
2023/10/18 03:41:50;;;;;;;20.02;4.40;;;14.60;99.90;;;;;;4989246;28;20109;-69
2023/10/18 03:44:26;;;;;;;8.82;4.30;;;14.60;99.90;;;;;;4988771;28;20031;-69
2023/10/18 03:47:03;;;;;;;8.40;4.47;;;14.50;99.90;;;;;;4988801;28;20027;-70
2023/10/18 03:51:57;;;;;;;9.80;4.60;;;14.50;99.90;;;;;;4988375;28;20118;-69
2023/10/18 03:54:23;;;;;;;14.57;4.70;;;14.40;99.90;;;;;;4989392;28;20034;-69
2023/10/18 03:56:55;;;;;;;12.68;4.25;;;14.50;99.90;;;;;;4988933;28;20026;-69
2023/10/18 03:59:21;;;;;;;5.95;4.38;;;14.50;99.90;;;;;;4987827;28;20038;-69
2023/10/18 04:04:36;;;;;;;10.55;4.00;;;14.50;99.90;;;;;;4987352;28;20150;-70
2023/10/18 04:07:12;;;;;;;6.72;3.97;;;14.50;99.90;;;;;;4987508;28;20061;-68
2023/10/18 04:09:54;;;;;;;6.65;4.15;;;14.60;99.90;;;;;;4985889;28;20038;-69
2023/10/18 04:12:23;;;;;;;6.50;3.80;;;14.60;99.90;;;;;;4987836;28;20034;-69
2023/10/18 04:14:52;;;;;;;6.13;4.05;;;14.60;99.90;;;;;;4989967;28;20042;-69
2023/10/18 04:17:20;;;;;;;7.30;3.60;;;14.60;99.90;;;;;;4986547;28;20034;-68
2023/10/18 04:19:49;;;;;;;7.72;3.67;;;14.60;99.90;;;;;;4985888;28;20046;-69
2023/10/18 04:22:15;;;;;;;8.27;4.47;;;14.60;99.90;;;;;;4986011;28;20521;-69
2023/10/18 04:24:40;;;;;;;10.47;4.43;;;14.70;99.90;;;;;;4987218;28;20066;-69
2023/10/18 04:27:06;;;;;;;10.43;4.00;;;14.70;99.90;;;;;;4987377;28;20042;-69
2023/10/18 04:29:39;;;;;;;6.45;4.03;;;14.60;99.90;;;;;;4987492;28;20035;-69
2023/10/18 04:32:06;;;;;;;8.35;4.32;;;14.60;99.90;;;;;;4988246;28;20109;-69
2023/10/18 04:34:33;;;;;;;;;;;14.60;99.90;;;;;;4987997;28;20042;-69
2023/10/18 04:37:01;;;;;;;8.40;4.53;;;14.60;99.90;;;;;;4983817;28;19914;-68
2023/10/18 04:39:27;;;;;;;4.97;3.58;;;14.70;99.90;;;;;;4986560;28;20042;-69
2023/10/18 04:41:53;;;;;;;8.23;3.72;;;14.70;99.90;;;;;;4984497;28;20475;-70
2023/10/18 04:44:20;;;;;;;6.78;3.50;;;14.80;99.90;;;;;;4987561;28;20061;-70
2023/10/18 04:46:47;;;;;;;9.98;3.97;;;14.70;99.90;;;;;;4987458;28;20042;-69
2023/10/18 04:54:18;;;;;;;7.63;4.40;;;14.80;99.90;;;;;;4987509;28;20133;-69
2023/10/18 04:56:48;;;;;;;9.45;4.28;;;14.80;99.90;;;;;;4986290;28;20193;-69
2023/10/18 05:04:20;;;;;;;9.20;4.35;;;14.90;99.90;;;;;;4985742;28;20034;-69
2023/10/18 05:06:56;;;;;;;6.10;4.03;;;14.90;99.90;;;;;;4985876;28;20026;-69
2023/10/18 05:09:31;;;;;;;6.72;4.30;;;14.90;99.90;;;;;;4986461;28;20073;-70
2023/10/18 05:11:58;;;;;;;7.18;4.50;;;14.90;99.90;;;;;;4984998;28;20506;-70
2023/10/18 05:14:35;;;;;;;7.43;4.20;;;14.90;99.90;;;;;;4986176;28;20038;-70
2023/10/18 05:17:10;;;;;;;8.15;4.28;;;14.90;99.90;;;;;;4985279;28;20073;-69
2023/10/18 05:19:41;;;;;;;6.93;4.63;;;14.90;99.90;;;;;;4986214;28;20046;-69
2023/10/18 05:22:08;;;;;;;8.00;4.28;;;14.80;99.90;;;;;;4987094;28;20080;-69
2023/10/18 05:24:37;;;;;;;6.10;4.35;;;14.80;99.90;;;;;;5018075;28;20030;-69
2023/10/18 05:27:24;;;;;;;6.50;4.68;;;14.70;99.90;;;;;;4985922;28;20061;-70
2023/10/18 05:29:54;;;;;;;8.20;4.95;;;14.80;99.90;;;;;;4985078;28;20087;-69
2023/10/18 05:32:47;;;;;;;9.00;4.85;;;14.70;99.90;;;;;;4986387;28;20406;-70
2023/10/18 05:35:19;;;;;;;7.07;4.50;;;14.80;99.90;;;;;;4984386;28;20045;-70
2023/10/18 05:43:06;;;;;;;10.98;5.78;;;14.70;99.90;;;;;;4985546;28;20491;-70
2023/10/18 05:45:33;;;;;;;13.30;5.32;;;14.70;99.90;;;;;;4975805;28;20034;-70
2023/10/18 05:48:13;;;;;;;12.05;5.10;;;14.70;99.90;;;;;;4985012;28;20040;-70
2023/10/18 05:50:48;;;;;;;9.00;4.50;;;14.80;99.90;;;;;;4985247;28;20073;-69
2023/10/18 05:53:18;;;;;;;9.68;5.53;;;14.80;99.90;;;;;;4984565;28;20027;-69
2023/10/18 05:55:53;;;;;;;14.60;5.40;;;14.90;99.90;;;;;;4982747;28;20517;-69
2023/10/18 05:58:25;;;;;;;8.05;4.75;;;14.80;99.90;;;;;;4984874;28;20085;-69
2023/10/18 06:00:55;;;;;;;15.77;5.93;;;14.70;99.90;;;;;;4985755;28;20554;-69
2023/10/18 06:03:22;;;;;;;11.07;5.35;;;14.60;99.90;;;;;;4985379;28;20137;-69
2023/10/18 06:05:53;;;;;;;11.75;5.72;;;14.50;99.90;;;;;;4983812;28;20112;-70
2023/10/18 06:08:22;;;;;;;10.30;5.45;;;14.50;99.90;;;;;;4986608;28;20030;-70
2023/10/18 06:10:53;;;;;;;12.60;5.35;;;14.50;99.90;;;;;;4985028;28;20089;-69
2023/10/18 06:13:22;;;;;;;8.27;5.05;;;14.50;99.90;;;;;;4985994;28;20042;-68
2023/10/18 06:15:50;;;;;;;13.70;6.28;;;14.50;99.90;;;;;;4984636;28;20126;-70
2023/10/18 06:18:30;;;;;;;12.25;5.57;;;14.60;99.90;;;;;;4984327;28;20049;-71
2023/10/18 06:20:59;;;;;;;14.98;5.20;;;14.60;99.90;;;;;;4985020;28;20038;-70
2023/10/18 06:23:37;;;;;;;8.77;5.15;;;14.60;99.90;;;;;;4984705;28;20041;-71
2023/10/18 06:28:53;;;;;;;19.08;6.20;;;14.60;99.90;;;;;;4983271;28;20528;-70
2023/10/18 06:31:20;;;;;;;17.52;6.13;;;14.50;99.90;;;;;;4983961;28;20030;-70
2023/10/18 06:33:51;;;;;;;13.43;6.63;;;14.60;99.90;;;;;;4984636;28;20052;-71
2023/10/18 06:36:18;;;;;;;10.00;5.88;;;14.60;99.90;;;;;;4983343;28;20461;-70
2023/10/18 06:38:44;;;;;;;14.45;5.75;;;14.80;99.90;;;;;;4983395;28;20521;-70
2023/10/18 06:41:19;;;;;;;12.00;6.30;;;14.90;99.90;;;;;;4981483;28;20027;-70
2023/10/18 06:43:53;;;;;;;16.63;5.80;;;15.00;99.90;;;;;;4984858;28;20385;-69
2023/10/18 06:46:26;;;;;;;12.85;6.13;;;14.90;99.90;;;;;;4981022;28;20060;-71
2023/10/18 06:48:55;;;;;;;13.15;5.63;;;15.00;99.90;;;;;;4985490;28;20031;-68
2023/10/18 06:51:40;;;;;;;10.85;6.88;;;15.00;99.90;;;;;;4992638;28;20042;-69
2023/10/18 06:54:12;;;;;;;18.80;6.55;;;14.90;99.90;;;;;;4984782;28;20065;-69
2023/10/18 06:56:39;;;;;;;14.68;5.63;;;15.00;99.90;;;;;;4984380;28;20042;-69
2023/10/18 06:59:07;;;;;;;11.93;6.07;;;15.10;99.90;;;;;;4984996;28;20069;-70
2023/10/18 07:01:41;;;;;;;13.40;5.88;;;15.10;99.90;;;;;;4984603;28;20034;-68
2023/10/18 07:04:27;;;;;;;17.05;5.78;;;15.20;99.90;;;;;;4985199;28;20038;-67
2023/10/18 07:06:53;;;;;;;12.27;5.93;;;15.30;99.90;;;;;;4985498;28;20026;-68
2023/10/18 07:09:25;;;;;;;9.50;5.78;;;15.30;99.90;;;;;;4984048;28;20042;-67
2023/10/18 07:11:57;;;;;;;9.63;6.15;;;15.30;99.90;;;;;;4984757;28;20080;-68
2023/10/18 07:14:26;;;;;;;15.43;5.95;;;15.40;99.90;;;;;;4984520;28;20133;-67
2023/10/18 07:16:55;;;;;;;12.95;5.93;;;15.50;99.90;;;;;;4982366;28;20023;-68
2023/10/18 07:19:26;;;;;;;9.32;5.13;;;16.00;99.90;;;;;;4983793;28;20034;-68
2023/10/18 07:21:57;;;;;;;7.35;5.43;;;16.10;99.90;;;;;;4985481;28;20113;-68
2023/10/18 07:24:25;;;;;;;13.68;5.80;;;16.20;99.90;;;;;;4985021;28;20056;-69
2023/10/18 07:26:53;;;;;;;13.60;5.28;;;16.40;99.90;;;;;;4979981;28;20499;-67
2023/10/18 07:29:20;;;;;;;13.63;5.70;;;16.60;99.90;;;;;;4984779;28;20048;-68
2023/10/18 07:31:46;;;;;;;9.15;5.30;;;16.50;99.90;;;;;;4980355;28;20053;-69
2023/10/18 07:34:19;;;;;;;10.93;5.43;;;16.20;99.90;;;;;;4984917;28;20054;-67
2023/10/18 07:36:47;;;;;;;14.88;5.10;;;16.10;99.90;;;;;;4984625;28;20818;-68
2023/10/18 07:39:16;;;;;;;8.75;4.70;;;16.10;99.90;;;;;;4983865;28;20537;-67
2023/10/18 07:41:46;;;;;;;15.80;5.78;;;16.00;99.90;;;;;;4984475;28;20105;-68
2023/10/18 07:44:12;;;;;;;19.40;5.88;;;16.00;99.90;;;;;;4988426;28;20026;-68
2023/10/18 07:46:41;;;;;;;17.20;5.77;;;16.00;99.90;;;;;;4985461;28;20077;-68
2023/10/18 07:49:11;;;;;;;11.70;5.15;;;16.10;99.90;;;;;;4987970;28;20391;-67
2023/10/18 07:51:55;;;;;;;15.95;7.32;;;16.30;99.90;;;;;;4987405;28;20120;-67
2023/10/18 07:54:22;;;;;;;17.58;5.88;;;16.40;99.90;;;;;;4987454;28;20059;-67
2023/10/18 07:56:53;;;;;;;;;;;16.30;99.90;;;;;;4988381;28;20168;-67
2023/10/18 07:59:32;;;;;;;10.75;4.60;;;16.30;99.90;;;;;;4987056;28;19935;-67
2023/10/18 08:02:12;;;;;;;12.23;5.45;;;16.30;99.90;;;;;;4987604;28;20030;-68
2023/10/18 08:04:40;;;;;;;9.32;5.20;;;16.30;99.90;;;;;;4987141;28;20038;-68
2023/10/18 08:07:10;;;;;;;14.10;5.10;;;16.40;99.90;;;;;;4987022;28;20049;-68
2023/10/18 08:09:39;;;;;;;15.73;4.70;;;16.50;99.90;;;;;;4988068;28;20053;-70
2023/10/18 08:12:07;;;;;;;16.27;5.35;;;16.50;99.90;;;;;;4979190;28;20062;-69
2023/10/18 08:14:33;;;;;;;14.10;5.18;;;16.60;99.90;;;;;;4986272;28;20072;-67
2023/10/18 08:17:08;;;;;;;10.30;5.30;;;16.60;99.90;;;;;;4987106;28;20085;-68
2023/10/18 08:19:44;;;;;;;10.88;5.43;;;16.60;99.90;;;;;;4985821;28;20034;-68
2023/10/18 08:24:36;;;;;;;6.78;4.78;;;16.50;99.90;;;;;;4985942;28;20069;-67
2023/10/18 08:27:09;;;;;;;14.70;5.40;;;16.50;99.90;;;;;;4983977;28;20042;-68
2023/10/18 08:29:36;;;;;;;12.63;4.60;;;16.50;99.90;;;;;;4984637;28;20903;-67
2023/10/18 08:32:14;;;;;;;;;;;16.50;99.90;;;;;;4987604;28;20101;-68
2023/10/18 08:34:41;;;;;;;18.60;4.63;;;16.50;99.90;;;;;;4984309;28;19927;-67
2023/10/18 08:37:10;;;;;;;10.45;4.22;;;16.50;99.90;;;;;;4987168;28;20030;-68
2023/10/18 08:39:39;;;;;;;26.08;5.15;;;16.60;99.90;;;;;;4985741;28;20129;-69
2023/10/18 08:42:12;;;;;;;12.15;4.60;;;16.70;99.90;;;;;;4987717;28;20026;-68
2023/10/18 08:44:39;;;;;;;11.77;5.35;;;16.70;99.90;;;;;;4987839;28;20069;-68
2023/10/18 08:49:44;;;;;;;15.98;6.10;;;16.60;99.90;;;;;;4987389;28;20042;-67
2023/10/18 08:52:11;;;;;;;11.60;4.13;;;16.60;99.90;;;;;;4987158;28;20041;-65
2023/10/18 08:54:41;;;;;;;13.18;4.63;;;16.60;99.90;;;;;;4984971;28;20077;-67
2023/10/18 08:57:10;;;;;;;10.50;5.38;;;16.70;99.90;;;;;;4987599;28;20054;-70
2023/10/18 08:59:46;;;;;;;10.27;5.30;;;16.70;99.90;;;;;;4985389;28;20076;-68
2023/10/18 09:02:19;;;;;;;20.92;5.20;;;16.80;99.90;;;;;;4986767;28;20549;-66
2023/10/18 09:04:46;;;;;;;6.55;4.60;;;16.80;99.90;;;;;;4987175;28;20473;-67
2023/10/18 09:07:23;;;;;;;8.45;4.70;;;16.80;99.90;;;;;;4987598;28;20109;-67
2023/10/18 09:09:58;;;;;;;;;;;16.80;99.90;;;;;;4987955;28;20097;-67
2023/10/18 09:17:54;;;;;;;11.95;5.95;;;16.70;99.90;;;;;;4985201;28;20061;-69
2023/10/18 09:20:25;;;;;;;11.30;4.90;;;16.80;99.90;;;;;;4985263;28;20133;-67
2023/10/18 09:22:51;;;;;;;12.18;5.20;;;16.70;99.90;;;;;;4982422;28;20101;-70
2023/10/18 09:25:17;;;;;;;11.55;6.43;;;16.70;99.90;;;;;;4985934;28;20585;-67
2023/10/18 09:27:45;;;;;;;25.45;9.32;;;16.80;99.90;;;;;;4986579;28;20038;-67
2023/10/18 09:30:13;;;;;;;14.80;8.27;;;16.80;99.90;;;;;;4986654;28;20035;-68
2023/10/18 09:32:39;;;;;;;15.38;7.05;;;16.80;99.90;;;;;;4985812;28;20490;-68
2023/10/18 09:35:09;;;;;;;11.73;5.07;;;16.80;99.90;;;;;;4985583;28;20046;-68
2023/10/18 09:37:38;;;;;;;19.08;7.43;;;16.80;99.90;;;;;;4986103;28;20384;-68
2023/10/18 09:40:06;;;;;;;19.23;7.00;;;16.80;99.90;;;;;;4984973;28;20042;-67
2023/10/18 09:42:32;;;;;;;14.70;6.72;;;16.80;99.90;;;;;;4984327;28;20503;-67
2023/10/18 09:44:59;;;;;;;11.27;5.37;;;16.80;99.90;;;;;;4986561;28;20026;-67
2023/10/18 09:47:26;;;;;;;16.10;5.80;;;16.80;99.90;;;;;;4986002;28;20458;-67
2023/10/18 09:49:54;;;;;;;;;;;16.70;99.90;;;;;;4986767;28;20342;-68
2023/10/18 09:52:24;;;;;;;10.65;5.10;;;16.70;99.90;;;;;;4985186;28;19913;-68
2023/10/18 09:54:50;;;;;;;11.48;5.68;;;16.80;99.90;;;;;;4982074;28;20208;-67
2023/10/18 09:57:23;;;;;;;10.43;5.75;;;16.80;99.90;;;;;;4986152;28;20033;-67
2023/10/18 09:59:53;;;;;;;20.08;5.10;;;16.80;99.90;;;;;;4985991;28;20115;-68
2023/10/18 10:02:20;;;;;;;21.33;6.53;;;16.80;99.90;;;;;;4959745;28;20038;-69
2023/10/18 10:04:52;;;;;;;12.43;5.95;;;16.80;99.90;;;;;;4984509;28;20034;-68
2023/10/18 10:10:09;;;;;;;14.10;6.38;;;16.80;99.90;;;;;;4988191;28;20060;-69
2023/10/18 10:12:35;;;;;;;11.50;6.45;;;16.80;99.90;;;;;;4983113;28;20820;-69
2023/10/18 10:15:02;;;;;;;15.88;7.35;;;16.90;99.90;;;;;;4985380;28;20042;-69
2023/10/18 10:17:30;;;;;;;18.33;5.85;;;16.80;99.90;;;;;;4985264;28;20034;-69
2023/10/18 10:20:15;;;;;;;12.68;6.68;;;16.80;99.90;;;;;;4986560;28;20114;-69
2023/10/18 10:22:44;;;;;;;15.88;6.25;;;16.70;99.90;;;;;;4983907;28;20027;-69
2023/10/18 10:25:19;;;;;;;13.02;6.15;;;16.80;99.90;;;;;;4984692;28;20445;-70
2023/10/18 10:27:53;;;;;;;14.65;7.00;;;16.80;99.90;;;;;;4980119;28;20165;-68
2023/10/18 10:32:49;;;;;;;17.13;7.38;;;16.90;99.90;;;;;;4983134;28;20061;-68
2023/10/18 10:35:27;;;;;;;12.63;7.53;;;16.90;99.90;;;;;;4984628;28;20093;-68
2023/10/18 10:38:21;;;;;;;16.55;7.65;;;16.90;99.90;;;;;;4978593;28;20023;-68
2023/10/18 10:41:19;;;;;;;13.57;7.70;;;16.90;99.90;;;;;;4983742;28;20040;-68
2023/10/18 10:44:08;;;;;;;15.20;7.07;;;17.00;99.90;;;;;;4984980;28;20031;-67
2023/10/18 10:46:40;;;;;;;13.40;7.28;;;17.10;99.90;;;;;;4984827;28;20035;-68
2023/10/18 10:49:43;;;;;;;25.63;8.38;;;17.10;99.90;;;;;;5017240;28;20497;-68
2023/10/18 10:52:10;;;;;;;14.88;7.03;;;17.20;99.90;;;;;;4982747;28;20037;-68
2023/10/18 10:54:38;;;;;;;14.00;7.45;;;17.30;99.90;;;;;;4984455;28;20034;-68
2023/10/18 10:57:11;;;;;;;15.32;8.32;;;17.40;99.90;;;;;;4985574;28;20030;-68
2023/10/18 10:59:41;;;;;;;15.02;8.38;;;17.50;99.90;;;;;;4984778;28;20065;-68
2023/10/18 11:02:07;;;;;;;17.30;7.57;;;17.50;99.90;;;;;;4984983;28;20110;-70
2023/10/18 11:04:50;;;;;;;16.20;7.93;;;17.50;99.90;;;;;;4986005;28;20066;-68
2023/10/18 11:07:22;;;;;;;14.73;8.52;;;17.60;99.90;;;;;;4983894;28;20026;-68
2023/10/18 11:09:49;;;;;;;18.25;8.18;;;17.60;99.90;;;;;;4985409;28;20076;-67
2023/10/18 11:12:14;;;;;;;17.25;8.00;;;17.80;99.90;;;;;;4984235;28;20384;-68
2023/10/18 11:14:44;;;;;;;20.73;7.95;;;17.90;99.90;;;;;;4985509;28;20042;-69
2023/10/18 11:19:43;;;;;;;17.95;7.53;;;18.20;99.90;;;;;;4983152;28;20121;-69
2023/10/18 11:22:13;;;;;;;14.43;7.30;;;18.20;99.90;;;;;;4987283;28;20030;-69
2023/10/18 11:24:39;;;;;;;19.77;7.68;;;18.30;99.90;;;;;;4988738;28;20117;-70
2023/10/18 11:27:08;;;;;;;;;;;18.30;99.90;;;;;;4988882;28;20037;-69
2023/10/18 11:29:38;;;;;;;15.35;6.82;;;18.40;99.90;;;;;;4987700;28;19914;-68
2023/10/18 11:32:06;;;;;;;10.85;6.18;;;18.40;99.90;;;;;;4989052;28;20030;-69
2023/10/18 11:34:33;;;;;;;16.00;6.88;;;18.50;99.90;;;;;;4988183;28;20034;-67
2023/10/18 11:37:02;;;;;;;12.88;6.05;;;18.60;99.90;;;;;;4989015;28;20026;-69
2023/10/18 11:39:34;;;;;;;14.10;6.03;;;18.60;99.90;;;;;;4988249;28;20030;-68
2023/10/18 11:42:00;;;;;;;13.75;5.47;;;18.80;99.90;;;;;;4987029;28;20483;-70
2023/10/18 11:44:34;;;;;;;9.80;5.38;;;19.00;99.90;;;;;;4989104;28;20034;-67
2023/10/18 11:47:19;;;;;;;16.05;5.97;;;19.10;99.90;;;;;;4987418;28;20490;-68
2023/10/18 11:49:53;;;;;;;10.38;5.82;;;19.10;99.90;;;;;;4986411;28;20039;-68
2023/10/18 11:52:25;;;;;;;17.02;6.93;;;19.30;99.90;;;;;;4986523;28;20597;-67
2023/10/18 11:54:52;;;;;;;16.92;5.28;;;19.50;99.90;;;;;;4986946;28;20038;-68
2023/10/18 11:57:29;;;;;;;12.18;5.05;;;19.50;99.90;;;;;;4989745;28;20028;-68
2023/10/18 12:00:02;;;;;;;9.52;4.53;;;19.60;99.90;;;;;;4987678;28;20481;-67
2023/10/18 12:02:31;;;;;;;11.60;5.57;;;19.70;99.90;;;;;;4988394;28;20039;-68
2023/10/18 12:04:57;;;;;;;20.45;5.00;;;19.70;99.90;;;;;;4987992;28;20481;-67
2023/10/18 12:07:24;;;;;;;16.45;5.00;;;19.90;99.90;;;;;;4986641;28;20049;-68
2023/10/18 12:09:53;;;;;;;13.30;4.60;;;19.90;99.90;;;;;;4988496;28;20157;-67
2023/10/18 12:12:19;;;;;;;24.15;5.00;;;19.90;99.90;;;;;;4987034;28;20062;-67
2023/10/18 12:14:47;;;;;;;16.85;5.80;;;19.90;99.90;;;;;;4986076;28;20042;-68
2023/10/18 12:17:13;;;;;;;12.05;4.40;;;20.00;99.90;;;;;;4987361;28;20044;-67
2023/10/18 12:19:39;;;;;;;;;;;20.10;99.90;;;;;;4987824;28;20038;-67
2023/10/18 12:22:07;;;;;;;12.85;5.30;;;20.40;99.90;;;;;;4986244;28;20816;-68
2023/10/18 12:24:33;;;;;;;15.43;5.30;;;20.50;99.90;;;;;;4988339;28;20033;-67
2023/10/18 12:29:52;;;;;;;13.60;4.10;;;20.90;99.90;;;;;;4986559;28;20085;-69
2023/10/18 12:32:25;;;;;;;13.60;4.38;;;21.20;99.90;;;;;;4977849;28;20030;-68
2023/10/18 12:35:07;;;;;;;18.55;3.90;;;21.10;99.90;;;;;;4983568;28;20038;-68
2023/10/18 12:37:32;;;;;;;14.13;4.63;;;21.00;99.90;;;;;;4984524;28;20062;-68
2023/10/18 12:39:59;;;;;;;16.98;5.53;;;21.00;99.90;;;;;;4985383;28;20541;-68
2023/10/18 12:42:25;;;;;;;15.00;4.07;;;20.90;99.90;;;;;;4983742;28;20406;-67
2023/10/18 12:44:55;;;;;;;;;;;21.00;99.90;;;;;;4984788;28;20038;-68
2023/10/18 12:47:21;;;;;;;23.40;4.15;;;20.90;99.90;;;;;;4984740;28;20002;-68
2023/10/18 12:49:50;;;;;;;17.33;4.68;;;21.00;99.90;;;;;;4984517;28;20038;-68
2023/10/18 12:55:28;;;;;;;13.68;4.78;;;20.90;99.90;;;;;;4984710;28;20465;-68
2023/10/18 12:57:52;;;;;;;11.85;4.15;;;20.90;99.90;;;;;;4986260;28;20038;-68
2023/10/18 13:00:17;;;;;;;;;;;21.10;99.90;;;;;;4986872;28;20056;-67
2023/10/18 13:02:50;;;;;;;19.75;4.13;;;21.20;99.90;;;;;;4986131;28;20370;-67
2023/10/18 13:05:17;;;;;;;13.02;3.90;;;21.20;99.90;;;;;;4985907;28;20053;-69
2023/10/18 13:07:45;;;;;;;19.17;4.35;;;21.30;99.90;;;;;;4986442;28;20057;-68
2023/10/18 13:10:12;;;;;;;21.02;4.90;;;21.50;99.90;;;;;;4986610;28;20487;-68
2023/10/18 13:12:53;;;;;;;15.77;4.47;;;21.70;99.90;;;;;;4987031;28;20030;-68
2023/10/18 13:15:19;;;;;;;14.25;4.40;;;21.90;99.90;;;;;;4985895;28;20141;-68
2023/10/18 13:17:45;;;;;;;20.80;4.65;;;21.90;99.90;;;;;;4987094;28;20109;-68
2023/10/18 13:20:17;;;;;;;14.95;4.22;;;22.20;99.90;;;;;;4986764;28;20030;-67
2023/10/18 13:22:43;;;;;;;16.17;3.88;;;22.20;99.90;;;;;;4986301;28;20042;-68
2023/10/18 13:25:09;;;;;;;11.33;4.17;;;22.50;98.70;;;;;;4986212;28;20509;-68
2023/10/18 13:27:38;;;;;;;16.95;4.28;;;22.40;96.20;;;;;;4987170;28;20280;-68
2023/10/18 13:32:50;;;;;;;22.73;4.15;;;22.20;96.00;;;;;;4986269;28;20077;-68
2023/10/18 13:35:16;;;;;;;;;;;22.00;97.20;;;;;;4987067;28;20050;-68
2023/10/18 13:37:44;;;;;;;21.42;4.05;;;22.00;96.60;;;;;;4986841;28;19910;-68
2023/10/18 13:40:18;;;;;;;12.85;3.92;;;21.90;95.70;;;;;;4986017;28;20118;-68
2023/10/18 13:42:45;;;;;;;13.60;4.13;;;22.10;98.40;;;;;;4987228;28;20033;-68
2023/10/18 13:45:13;;;;;;;12.35;3.60;;;22.40;95.30;;;;;;4986084;28;20034;-68
2023/10/18 13:47:39;;;;;;;14.55;3.90;;;22.60;95.40;;;;;;4981992;28;20049;-69
2023/10/18 13:50:09;;;;;;;10.25;3.83;;;22.50;94.90;;;;;;4986181;28;20487;-68